sensor_id;sensor_type;location;lat;lon;timestamp;pressure;altitude;pressure_sealevel;temperature;humidity
25156;BME280;71253;51.496;7.606;2023-09-08T00:04:24;100432.25;;;14.45;100.00
25156;BME280;71253;51.496;7.606;2023-09-08T00:09:25;100427.09;;;14.40;100.00
25156;BME280;71253;51.496;7.606;2023-09-08T00:14:27;100418.50;;;14.29;100.00
25156;BME280;71253;51.496;7.606;2023-09-08T00:19:28;100421.56;;;14.76;100.00
25156;BME280;71253;51.496;7.606;2023-09-08T00:24:30;100416.59;;;15.28;100.00
25156;BME280;71253;51.496;7.606;2023-09-08T00:29:31;100413.38;;;15.72;99.22
25156;BME280;71253;51.496;7.606;2023-09-08T00:34:33;100409.94;;;16.23;94.14
25156;BME280;71253;51.496;7.606;2023-09-08T00:39:38;100405.59;;;16.23;93.34
25156;BME280;71253;51.496;7.606;2023-09-08T00:44:39;100408.91;;;15.82;95.14
25156;BME280;71253;51.496;7.606;2023-09-08T00:49:41;100401.97;;;15.18;99.48
25156;BME280;71253;51.496;7.606;2023-09-08T00:54:43;100396.34;;;14.81;100.00
25156;BME280;71253;51.496;7.606;2023-09-08T00:59:44;100396.88;;;15.07;100.00
25156;BME280;71253;51.496;7.606;2023-09-08T01:04:46;100401.69;;;14.68;100.00
25156;BME280;71253;51.496;7.606;2023-09-08T01:09:48;100407.81;;;14.61;100.00
25156;BME280;71253;51.496;7.606;2023-09-08T01:14:50;100405.06;;;14.77;100.00
25156;BME280;71253;51.496;7.606;2023-09-08T01:19:56;100413.44;;;15.03;100.00
25156;BME280;71253;51.496;7.606;2023-09-08T01:25:12;100407.72;;;14.70;100.00
25156;BME280;71253;51.496;7.606;2023-09-08T01:30:16;100417.44;;;14.55;100.00
25156;BME280;71253;51.496;7.606;2023-09-08T01:35:19;100412.13;;;14.65;100.00
25156;BME280;71253;51.496;7.606;2023-09-08T01:40:20;100408.41;;;14.86;100.00
25156;BME280;71253;51.496;7.606;2023-09-08T01:45:22;100404.88;;;14.92;100.00
25156;BME280;71253;51.496;7.606;2023-09-08T01:50:24;100404.09;;;14.85;100.00
25156;BME280;71253;51.496;7.606;2023-09-08T01:55:25;100397.69;;;14.32;100.00
25156;BME280;71253;51.496;7.606;2023-09-08T02:00:27;100387.38;;;14.21;100.00
25156;BME280;71253;51.496;7.606;2023-09-08T02:05:28;100383.19;;;14.04;100.00
25156;BME280;71253;51.496;7.606;2023-09-08T02:10:30;100387.72;;;13.82;100.00
25156;BME280;71253;51.496;7.606;2023-09-08T02:15:34;100392.91;;;13.83;100.00
25156;BME280;71253;51.496;7.606;2023-09-08T02:20:36;100393.75;;;13.87;100.00
25156;BME280;71253;51.496;7.606;2023-09-08T02:25:38;100390.44;;;13.62;100.00
25156;BME280;71253;51.496;7.606;2023-09-08T02:30:39;100394.09;;;13.35;100.00
25156;BME280;71253;51.496;7.606;2023-09-08T02:35:41;100386.91;;;13.72;100.00
25156;BME280;71253;51.496;7.606;2023-09-08T02:40:44;100385.41;;;14.46;100.00
25156;BME280;71253;51.496;7.606;2023-09-08T02:45:47;100384.56;;;15.18;98.26
25156;BME280;71253;51.496;7.606;2023-09-08T02:50:48;100378.50;;;15.76;92.07
25156;BME280;71253;51.496;7.606;2023-09-08T02:55:50;100386.09;;;15.35;94.79
25156;BME280;71253;51.496;7.606;2023-09-08T03:00:52;100384.31;;;14.69;99.33
25156;BME280;71253;51.496;7.606;2023-09-08T03:05:54;100389.13;;;14.18;100.00
25156;BME280;71253;51.496;7.606;2023-09-08T03:10:57;100388.16;;;14.28;100.00
25156;BME280;71253;51.496;7.606;2023-09-08T03:16:07;100383.94;;;14.99;96.90
25156;BME280;71253;51.496;7.606;2023-09-08T03:21:09;100381.59;;;15.43;92.05
25156;BME280;71253;51.496;7.606;2023-09-08T03:26:12;100377.84;;;15.64;90.07
25156;BME280;71253;51.496;7.606;2023-09-08T03:31:13;100373.47;;;15.67;88.68
25156;BME280;71253;51.496;7.606;2023-09-08T03:36:15;100366.56;;;16.14;84.98
25156;BME280;71253;51.496;7.606;2023-09-08T03:41:17;100368.00;;;16.34;83.45
25156;BME280;71253;51.496;7.606;2023-09-08T03:46:20;100376.31;;;15.50;88.87
25156;BME280;71253;51.496;7.606;2023-09-08T03:51:22;100362.69;;;14.61;94.89
25156;BME280;71253;51.496;7.606;2023-09-08T03:56:24;100367.88;;;14.62;94.93
25156;BME280;71253;51.496;7.606;2023-09-08T04:01:26;100378.13;;;14.78;94.80
25156;BME280;71253;51.496;7.606;2023-09-08T04:06:28;100379.59;;;14.20;99.66
25156;BME280;71253;51.496;7.606;2023-09-08T04:11:30;100377.69;;;14.34;96.83
25156;BME280;71253;51.496;7.606;2023-09-08T04:16:31;100372.22;;;14.63;94.49
25156;BME280;71253;51.496;7.606;2023-09-08T04:21:33;100377.09;;;14.91;91.85
25156;BME280;71253;51.496;7.606;2023-09-08T04:26:35;100368.06;;;14.47;95.17
25156;BME280;71253;51.496;7.606;2023-09-08T04:31:36;100373.66;;;14.01;99.05
25156;BME280;71253;51.496;7.606;2023-09-08T04:36:38;100379.56;;;14.21;98.21
25156;BME280;71253;51.496;7.606;2023-09-08T04:41:41;100378.75;;;15.60;88.12
25156;BME280;71253;51.496;7.606;2023-09-08T04:46:43;100371.84;;;16.13;84.61
25156;BME280;71253;51.496;7.606;2023-09-08T04:51:44;100381.03;;;16.34;82.79
25156;BME280;71253;51.496;7.606;2023-09-08T04:56:49;100378.47;;;16.32;83.04
25156;BME280;71253;51.496;7.606;2023-09-08T05:01:51;100382.91;;;16.25;83.30
25156;BME280;71253;51.496;7.606;2023-09-08T05:06:53;100378.00;;;16.10;84.14
25156;BME280;71253;51.496;7.606;2023-09-08T05:11:55;100384.25;;;16.00;84.61
25156;BME280;71253;51.496;7.606;2023-09-08T05:16:57;100380.72;;;16.04;84.42
25156;BME280;71253;51.496;7.606;2023-09-08T05:22:02;100378.97;;;16.04;84.51
25156;BME280;71253;51.496;7.606;2023-09-08T05:27:04;100387.47;;;16.16;83.77
25156;BME280;71253;51.496;7.606;2023-09-08T05:32:06;100377.56;;;16.33;82.33
25156;BME280;71253;51.496;7.606;2023-09-08T05:37:08;100383.06;;;16.66;80.79
25156;BME280;71253;51.496;7.606;2023-09-08T05:42:10;100367.97;;;17.22;77.79
25156;BME280;71253;51.496;7.606;2023-09-08T05:47:13;100363.50;;;18.01;73.67
25156;BME280;71253;51.496;7.606;2023-09-08T05:52:14;100383.22;;;19.11;68.84
25156;BME280;71253;51.496;7.606;2023-09-08T05:57:17;100382.50;;;20.16;64.39
25156;BME280;71253;51.496;7.606;2023-09-08T06:02:19;100379.53;;;21.69;59.13
25156;BME280;71253;51.496;7.606;2023-09-08T06:07:21;100383.91;;;22.33;57.01
25156;BME280;71253;51.496;7.606;2023-09-08T06:12:23;100373.81;;;22.63;55.27
25156;BME280;71253;51.496;7.606;2023-09-08T06:17:25;100372.38;;;22.36;55.27
25156;BME280;71253;51.496;7.606;2023-09-08T06:22:28;100369.56;;;23.00;53.69
25156;BME280;71253;51.496;7.606;2023-09-08T06:27:29;100378.56;;;23.70;51.48
25156;BME280;71253;51.496;7.606;2023-09-08T06:32:31;100377.13;;;24.16;50.33
25156;BME280;71253;51.496;7.606;2023-09-08T06:37:37;100377.97;;;24.34;49.60
25156;BME280;71253;51.496;7.606;2023-09-08T06:42:40;100374.47;;;24.84;48.68
25156;BME280;71253;51.496;7.606;2023-09-08T06:47:52;100381.22;;;24.89;48.36
25156;BME280;71253;51.496;7.606;2023-09-08T06:52:54;100375.69;;;24.94;48.33
25156;BME280;71253;51.496;7.606;2023-09-08T06:57:56;100370.75;;;24.55;49.67
25156;BME280;71253;51.496;7.606;2023-09-08T07:02:58;100378.97;;;24.66;49.69
25156;BME280;71253;51.496;7.606;2023-09-08T07:08:01;100371.66;;;25.52;47.62
25156;BME280;71253;51.496;7.606;2023-09-08T07:13:03;100376.94;;;25.83;47.15
25156;BME280;71253;51.496;7.606;2023-09-08T07:18:05;100374.63;;;26.07;46.44
25156;BME280;71253;51.496;7.606;2023-09-08T07:23:07;100374.75;;;27.90;42.11
25156;BME280;71253;51.496;7.606;2023-09-08T07:28:09;100386.44;;;29.53;40.00
25156;BME280;71253;51.496;7.606;2023-09-08T07:33:11;100384.97;;;32.19;35.44
25156;BME280;71253;51.496;7.606;2023-09-08T07:38:13;100375.97;;;31.56;33.91
25156;BME280;71253;51.496;7.606;2023-09-08T07:43:15;100385.56;;;31.48;34.31
25156;BME280;71253;51.496;7.606;2023-09-08T07:48:18;100382.53;;;31.52;34.67
25156;BME280;71253;51.496;7.606;2023-09-08T07:53:19;100380.03;;;31.83;34.14
25156;BME280;71253;51.496;7.606;2023-09-08T07:58:21;100380.66;;;33.01;33.50
25156;BME280;71253;51.496;7.606;2023-09-08T08:03:23;100377.13;;;34.08;31.84
25156;BME280;71253;51.496;7.606;2023-09-08T08:08:25;100379.78;;;34.27;30.95
25156;BME280;71253;51.496;7.606;2023-09-08T08:13:26;100381.94;;;33.16;31.10
25156;BME280;71253;51.496;7.606;2023-09-08T08:18:28;100377.03;;;32.18;33.62
25156;BME280;71253;51.496;7.606;2023-09-08T08:23:30;100365.47;;;31.97;34.50
25156;BME280;71253;51.496;7.606;2023-09-08T08:28:32;100368.69;;;31.47;35.36
25156;BME280;71253;51.496;7.606;2023-09-08T08:33:33;100364.47;;;31.77;34.59
25156;BME280;71253;51.496;7.606;2023-09-08T08:38:35;100358.16;;;32.61;32.99
25156;BME280;71253;51.496;7.606;2023-09-08T08:43:37;100367.09;;;33.02;32.46
25156;BME280;71253;51.496;7.606;2023-09-08T08:48:40;100366.81;;;34.04;30.32
25156;BME280;71253;51.496;7.606;2023-09-08T08:53:42;100364.56;;;33.80;31.25
25156;BME280;71253;51.496;7.606;2023-09-08T08:58:43;100365.84;;;33.66;31.02
25156;BME280;71253;51.496;7.606;2023-09-08T09:03:49;100363.59;;;32.81;32.65
25156;BME280;71253;51.496;7.606;2023-09-08T09:08:50;100365.09;;;32.22;34.25
25156;BME280;71253;51.496;7.606;2023-09-08T09:13:52;100358.88;;;32.94;33.49
25156;BME280;71253;51.496;7.606;2023-09-08T09:18:55;100358.84;;;33.34;32.90
25156;BME280;71253;51.496;7.606;2023-09-08T09:23:57;100351.59;;;33.94;31.53
25156;BME280;71253;51.496;7.606;2023-09-08T09:28:59;100356.09;;;34.70;31.01
25156;BME280;71253;51.496;7.606;2023-09-08T09:34:02;100358.47;;;33.58;32.44
25156;BME280;71253;51.496;7.606;2023-09-08T09:39:04;100344.44;;;33.35;32.97
25156;BME280;71253;51.496;7.606;2023-09-08T09:44:05;100350.28;;;33.60;32.58
25156;BME280;71253;51.496;7.606;2023-09-08T09:49:10;100346.47;;;32.93;33.73
25156;BME280;71253;51.496;7.606;2023-09-08T09:54:12;100339.00;;;33.66;32.09
25156;BME280;71253;51.496;7.606;2023-09-08T09:59:14;100340.34;;;34.38;29.77
25156;BME280;71253;51.496;7.606;2023-09-08T10:04:16;100344.63;;;35.05;29.27
25156;BME280;71253;51.496;7.606;2023-09-08T10:09:18;100339.72;;;33.78;29.41
25156;BME280;71253;51.496;7.606;2023-09-08T10:14:20;100334.63;;;32.65;31.73
25156;BME280;71253;51.496;7.606;2023-09-08T10:19:23;100335.28;;;33.28;31.51
25156;BME280;71253;51.496;7.606;2023-09-08T10:24:27;100346.94;;;32.77;30.49
25156;BME280;71253;51.496;7.606;2023-09-08T10:29:29;100346.34;;;32.64;30.16
25156;BME280;71253;51.496;7.606;2023-09-08T10:34:32;100341.63;;;32.87;30.07
25156;BME280;71253;51.496;7.606;2023-09-08T10:39:36;100331.09;;;32.13;33.78
25156;BME280;71253;51.496;7.606;2023-09-08T10:44:38;100334.25;;;32.69;32.64
25156;BME280;71253;51.496;7.606;2023-09-08T10:49:40;100329.78;;;33.30;30.92
25156;BME280;71253;51.496;7.606;2023-09-08T10:54:43;100334.00;;;32.82;30.95
25156;BME280;71253;51.496;7.606;2023-09-08T10:59:51;100336.63;;;32.63;31.93
25156;BME280;71253;51.496;7.606;2023-09-08T11:04:53;100325.41;;;33.29;31.90
25156;BME280;71253;51.496;7.606;2023-09-08T11:09:55;100331.22;;;33.63;31.66
25156;BME280;71253;51.496;7.606;2023-09-08T11:14:57;100329.38;;;33.92;30.39
25156;BME280;71253;51.496;7.606;2023-09-08T11:19:58;100334.59;;;32.55;33.08
25156;BME280;71253;51.496;7.606;2023-09-08T11:25:00;100328.00;;;31.97;34.40
25156;BME280;71253;51.496;7.606;2023-09-08T11:30:02;100323.47;;;31.55;35.26
25156;BME280;71253;51.496;7.606;2023-09-08T11:35:05;100314.53;;;31.66;34.30
25156;BME280;71253;51.496;7.606;2023-09-08T11:40:08;100311.25;;;31.30;33.54
25156;BME280;71253;51.496;7.606;2023-09-08T11:45:12;100304.75;;;31.55;32.83
25156;BME280;71253;51.496;7.606;2023-09-08T11:50:13;100307.03;;;31.28;32.18
25156;BME280;71253;51.496;7.606;2023-09-08T11:55:15;100304.56;;;31.25;33.25
25156;BME280;71253;51.496;7.606;2023-09-08T12:00:18;100304.09;;;31.31;34.96
25156;BME280;71253;51.496;7.606;2023-09-08T12:05:22;100299.44;;;30.89;32.18
25156;BME280;71253;51.496;7.606;2023-09-08T12:10:24;100297.47;;;30.92;33.93
25156;BME280;71253;51.496;7.606;2023-09-08T12:15:33;100297.25;;;30.95;32.77
25156;BME280;71253;51.496;7.606;2023-09-08T12:20:36;100296.75;;;31.01;33.07
25156;BME280;71253;51.496;7.606;2023-09-08T12:25:45;100299.59;;;31.20;34.36
25156;BME280;71253;51.496;7.606;2023-09-08T12:30:47;100292.69;;;31.17;32.94
25156;BME280;71253;51.496;7.606;2023-09-08T12:35:49;100285.53;;;31.18;33.04
25156;BME280;71253;51.496;7.606;2023-09-08T12:40:51;100276.06;;;31.14;33.85
25156;BME280;71253;51.496;7.606;2023-09-08T12:45:53;100271.44;;;31.27;33.02
25156;BME280;71253;51.496;7.606;2023-09-08T12:50:54;100276.06;;;31.14;32.81
25156;BME280;71253;51.496;7.606;2023-09-08T12:55:56;100267.78;;;31.17;33.53
25156;BME280;71253;51.496;7.606;2023-09-08T13:00:58;100269.84;;;31.13;35.29
25156;BME280;71253;51.496;7.606;2023-09-08T13:05:59;100272.84;;;30.99;35.25
25156;BME280;71253;51.496;7.606;2023-09-08T13:11:01;100262.13;;;31.10;35.02
25156;BME280;71253;51.496;7.606;2023-09-08T13:16:02;100259.50;;;31.20;35.17
25156;BME280;71253;51.496;7.606;2023-09-08T13:21:04;100255.59;;;31.35;33.10
25156;BME280;71253;51.496;7.606;2023-09-08T13:26:06;100257.56;;;31.22;31.98
25156;BME280;71253;51.496;7.606;2023-09-08T13:31:08;100251.75;;;31.17;34.50
25156;BME280;71253;51.496;7.606;2023-09-08T13:36:09;100251.75;;;31.17;34.94
25156;BME280;71253;51.496;7.606;2023-09-08T13:41:11;100246.53;;;31.27;34.16
25156;BME280;71253;51.496;7.606;2023-09-08T13:46:12;100250.06;;;31.27;32.96
25156;BME280;71253;51.496;7.606;2023-09-08T13:51:14;100244.19;;;31.33;33.48
25156;BME280;71253;51.496;7.606;2023-09-08T13:56:16;100242.53;;;31.21;35.23
25156;BME280;71253;51.496;7.606;2023-09-08T14:01:20;100239.94;;;31.31;33.97
25156;BME280;71253;51.496;7.606;2023-09-08T14:06:24;100238.63;;;31.14;35.45
25156;BME280;71253;51.496;7.606;2023-09-08T14:11:29;100244.72;;;31.16;36.13
25156;BME280;71253;51.496;7.606;2023-09-08T14:16:34;100241.06;;;31.28;33.56
25156;BME280;71253;51.496;7.606;2023-09-08T14:21:35;100241.25;;;31.36;33.60
25156;BME280;71253;51.496;7.606;2023-09-08T14:26:37;100238.03;;;31.22;35.64
25156;BME280;71253;51.496;7.606;2023-09-08T14:31:39;100226.41;;;31.11;35.44
25156;BME280;71253;51.496;7.606;2023-09-08T14:36:40;100218.88;;;31.05;34.45
25156;BME280;71253;51.496;7.606;2023-09-08T14:41:42;100226.47;;;30.89;34.92
25156;BME280;71253;51.496;7.606;2023-09-08T14:46:43;100224.16;;;30.84;35.62
25156;BME280;71253;51.496;7.606;2023-09-08T14:51:45;100221.63;;;30.83;34.74
25156;BME280;71253;51.496;7.606;2023-09-08T14:56:46;100228.63;;;30.95;34.84
25156;BME280;71253;51.496;7.606;2023-09-08T15:01:48;100225.13;;;30.95;34.25
25156;BME280;71253;51.496;7.606;2023-09-08T15:06:50;100227.66;;;30.96;34.97
25156;BME280;71253;51.496;7.606;2023-09-08T15:11:51;100232.28;;;30.94;34.65
25156;BME280;71253;51.496;7.606;2023-09-08T15:16:53;100225.59;;;31.00;34.32
25156;BME280;71253;51.496;7.606;2023-09-08T15:21:55;100221.72;;;30.81;35.06
25156;BME280;71253;51.496;7.606;2023-09-08T15:26:56;100210.47;;;30.78;34.18
25156;BME280;71253;51.496;7.606;2023-09-08T15:31:58;100209.88;;;30.52;34.47
25156;BME280;71253;51.496;7.606;2023-09-08T15:37:00;100202.09;;;30.49;34.45
25156;BME280;71253;51.496;7.606;2023-09-08T15:42:02;100196.75;;;30.49;34.75
25156;BME280;71253;51.496;7.606;2023-09-08T15:47:03;100196.94;;;30.25;35.48
25156;BME280;71253;51.496;7.606;2023-09-08T15:52:05;100198.59;;;30.03;36.05
25156;BME280;71253;51.496;7.606;2023-09-08T15:57:14;100200.16;;;29.95;36.30
25156;BME280;71253;51.496;7.606;2023-09-08T16:02:15;100197.94;;;29.77;35.30
25156;BME280;71253;51.496;7.606;2023-09-08T16:07:17;100203.13;;;29.68;35.65
25156;BME280;71253;51.496;7.606;2023-09-08T16:12:19;100199.06;;;29.51;34.98
25156;BME280;71253;51.496;7.606;2023-09-08T16:17:21;100208.69;;;29.29;35.37
25156;BME280;71253;51.496;7.606;2023-09-08T16:22:23;100203.78;;;29.12;35.98
25156;BME280;71253;51.496;7.606;2023-09-08T16:27:25;100200.97;;;28.90;36.93
25156;BME280;71253;51.496;7.606;2023-09-08T16:32:26;100197.97;;;28.70;37.08
25156;BME280;71253;51.496;7.606;2023-09-08T16:37:28;100188.66;;;28.52;37.87
25156;BME280;71253;51.496;7.606;2023-09-08T16:42:30;100202.75;;;28.28;39.06
25156;BME280;71253;51.496;7.606;2023-09-08T16:47:31;100201.72;;;28.06;40.67
25156;BME280;71253;51.496;7.606;2023-09-08T16:52:33;100204.69;;;27.75;42.89
25156;BME280;71253;51.496;7.606;2023-09-08T16:57:34;100204.41;;;27.53;43.40
25156;BME280;71253;51.496;7.606;2023-09-08T17:02:36;100198.94;;;27.29;44.51
25156;BME280;71253;51.496;7.606;2023-09-08T17:07:38;100203.88;;;27.08;44.86
25156;BME280;71253;51.496;7.606;2023-09-08T17:12:40;100205.09;;;26.76;46.35
25156;BME280;71253;51.496;7.606;2023-09-08T17:17:41;100205.56;;;26.68;46.58
25156;BME280;71253;51.496;7.606;2023-09-08T17:22:43;100196.72;;;26.55;45.98
25156;BME280;71253;51.496;7.606;2023-09-08T17:27:44;100205.91;;;26.06;48.64
25156;BME280;71253;51.496;7.606;2023-09-08T17:32:46;100203.00;;;25.66;50.15
25156;BME280;71253;51.496;7.606;2023-09-08T17:37:47;100206.75;;;25.18;49.80
25156;BME280;71253;51.496;7.606;2023-09-08T17:42:49;100209.66;;;24.82;50.10
25156;BME280;71253;51.496;7.606;2023-09-08T17:47:51;100224.16;;;24.43;52.45
25156;BME280;71253;51.496;7.606;2023-09-08T17:52:52;100225.41;;;23.85;56.27
25156;BME280;71253;51.496;7.606;2023-09-08T17:57:54;100232.00;;;23.42;55.49
25156;BME280;71253;51.496;7.606;2023-09-08T18:02:56;100234.72;;;23.04;58.90
25156;BME280;71253;51.496;7.606;2023-09-08T18:07:57;100233.19;;;22.44;63.34
25156;BME280;71253;51.496;7.606;2023-09-08T18:12:59;100240.81;;;21.90;65.80
25156;BME280;71253;51.496;7.606;2023-09-08T18:18:01;100234.28;;;21.58;65.85
25156;BME280;71253;51.496;7.606;2023-09-08T18:23:02;100236.59;;;21.45;64.60
25156;BME280;71253;51.496;7.606;2023-09-08T18:28:04;100245.06;;;21.52;61.66
25156;BME280;71253;51.496;7.606;2023-09-08T18:33:06;100249.44;;;21.53;68.34
25156;BME280;71253;51.496;7.606;2023-09-08T18:38:07;100251.59;;;20.99;68.57
25156;BME280;71253;51.496;7.606;2023-09-08T18:43:09;100253.69;;;20.68;72.41
25156;BME280;71253;51.496;7.606;2023-09-08T18:48:11;100259.34;;;20.32;72.22
25156;BME280;71253;51.496;7.606;2023-09-08T18:53:13;100261.28;;;20.52;71.08
25156;BME280;71253;51.496;7.606;2023-09-08T18:58:14;100262.44;;;20.43;70.06
25156;BME280;71253;51.496;7.606;2023-09-08T19:03:16;100261.25;;;20.29;69.67
25156;BME280;71253;51.496;7.606;2023-09-08T19:08:18;100267.97;;;20.12;70.81
25156;BME280;71253;51.496;7.606;2023-09-08T19:13:20;100271.13;;;19.97;70.80
25156;BME280;71253;51.496;7.606;2023-09-08T19:18:21;100266.41;;;19.82;72.04
25156;BME280;71253;51.496;7.606;2023-09-08T19:23:23;100274.19;;;19.58;72.79
25156;BME280;71253;51.496;7.606;2023-09-08T19:28:24;100266.75;;;19.44;75.90
25156;BME280;71253;51.496;7.606;2023-09-08T19:33:26;100272.59;;;19.26;77.52
25156;BME280;71253;51.496;7.606;2023-09-08T19:38:28;100270.59;;;19.06;78.16
25156;BME280;71253;51.496;7.606;2023-09-08T19:43:30;100267.97;;;18.78;79.39
25156;BME280;71253;51.496;7.606;2023-09-08T19:48:35;100271.88;;;18.63;80.88
25156;BME280;71253;51.496;7.606;2023-09-08T19:53:37;100267.66;;;18.58;82.17
25156;BME280;71253;51.496;7.606;2023-09-08T19:58:39;100274.00;;;18.51;83.49
25156;BME280;71253;51.496;7.606;2023-09-08T20:03:40;100270.00;;;18.37;84.48
25156;BME280;71253;51.496;7.606;2023-09-08T20:08:42;100268.56;;;18.27;85.05
25156;BME280;71253;51.496;7.606;2023-09-08T20:13:44;100266.44;;;18.40;84.39
25156;BME280;71253;51.496;7.606;2023-09-08T20:18:46;100267.00;;;18.51;83.35
25156;BME280;71253;51.496;7.606;2023-09-08T20:23:48;100262.09;;;18.70;82.37
25156;BME280;71253;51.496;7.606;2023-09-08T20:28:50;100259.63;;;18.64;82.85
25156;BME280;71253;51.496;7.606;2023-09-08T20:33:51;100261.56;;;18.28;84.82
25156;BME280;71253;51.496;7.606;2023-09-08T20:38:53;100266.50;;;18.38;84.98
25156;BME280;71253;51.496;7.606;2023-09-08T20:43:57;100271.25;;;18.24;86.22
25156;BME280;71253;51.496;7.606;2023-09-08T20:48:59;100268.16;;;18.41;86.74
25156;BME280;71253;51.496;7.606;2023-09-08T20:54:01;100271.13;;;18.60;84.48
25156;BME280;71253;51.496;7.606;2023-09-08T20:59:02;100268.03;;;18.77;83.42
25156;BME280;71253;51.496;7.606;2023-09-08T21:04:04;100270.41;;;18.84;79.84
25156;BME280;71253;51.496;7.606;2023-09-08T21:09:06;100268.75;;;19.10;77.27
25156;BME280;71253;51.496;7.606;2023-09-08T21:14:07;100265.56;;;19.81;72.18
25156;BME280;71253;51.496;7.606;2023-09-08T21:19:09;100258.44;;;20.33;69.92
25156;BME280;71253;51.496;7.606;2023-09-08T21:24:10;100266.78;;;20.91;66.80
25156;BME280;71253;51.496;7.606;2023-09-08T21:29:12;100257.09;;;21.15;65.42
25156;BME280;71253;51.496;7.606;2023-09-08T21:34:15;100256.53;;;21.29;66.57
25156;BME280;71253;51.496;7.606;2023-09-08T21:39:17;100257.03;;;21.17;67.06
25156;BME280;71253;51.496;7.606;2023-09-08T21:44:19;100251.59;;;20.99;67.82
25156;BME280;71253;51.496;7.606;2023-09-08T21:49:20;100254.66;;;20.87;68.42
25156;BME280;71253;51.496;7.606;2023-09-08T21:54:22;100253.56;;;20.93;68.61
25156;BME280;71253;51.496;7.606;2023-09-08T21:59:23;100259.38;;;20.79;70.35
25156;BME280;71253;51.496;7.606;2023-09-08T22:04:25;100255.47;;;20.42;72.83
25156;BME280;71253;51.496;7.606;2023-09-08T22:09:26;100262.03;;;20.07;76.00
25156;BME280;71253;51.496;7.606;2023-09-08T22:14:28;100264.16;;;19.71;78.56
25156;BME280;71253;51.496;7.606;2023-09-08T22:19:30;100261.63;;;19.41;80.96
25156;BME280;71253;51.496;7.606;2023-09-08T22:24:31;100268.88;;;19.33;81.04
25156;BME280;71253;51.496;7.606;2023-09-08T22:29:33;100275.81;;;19.36;80.50
25156;BME280;71253;51.496;7.606;2023-09-08T22:34:35;100264.94;;;19.20;81.08
25156;BME280;71253;51.496;7.606;2023-09-08T22:39:36;100272.28;;;19.09;81.60
25156;BME280;71253;51.496;7.606;2023-09-08T22:44:38;100259.69;;;19.20;80.21
25156;BME280;71253;51.496;7.606;2023-09-08T22:49:59;100266.25;;;19.33;79.35
25156;BME280;71253;51.496;7.606;2023-09-08T22:55:02;100259.19;;;19.35;79.05
25156;BME280;71253;51.496;7.606;2023-09-08T23:00:13;100259.09;;;19.38;78.41
25156;BME280;71253;51.496;7.606;2023-09-08T23:05:15;100260.78;;;19.41;77.80
25156;BME280;71253;51.496;7.606;2023-09-08T23:10:16;100254.00;;;19.34;77.91
25156;BME280;71253;51.496;7.606;2023-09-08T23:15:18;100257.66;;;19.28;78.43
25156;BME280;71253;51.496;7.606;2023-09-08T23:20:20;100256.47;;;19.38;76.82
25156;BME280;71253;51.496;7.606;2023-09-08T23:25:21;100252.06;;;19.39;76.40
25156;BME280;71253;51.496;7.606;2023-09-08T23:30:23;100257.22;;;19.42;75.84
25156;BME280;71253;51.496;7.606;2023-09-08T23:35:25;100254.25;;;19.26;76.13
25156;BME280;71253;51.496;7.606;2023-09-08T23:40:26;100249.09;;;19.23;75.46
25156;BME280;71253;51.496;7.606;2023-09-08T23:45:28;100238.19;;;19.09;76.38
25156;BME280;71253;51.496;7.606;2023-09-08T23:50:54;100246.69;;;18.89;76.77
25156;BME280;71253;51.496;7.606;2023-09-08T23:55:55;100231.69;;;18.63;77.91
